Time;durP1;ratioP1;P1;durP2;ratioP2;P2;SDS_P1;SDS_P2;PMS_P1;PMS_P2;Temp;Humidity;BMP_temperature;BMP_pressure;BME280_temperature;BME280_humidity;BME280_pressure;Samples;Min_cycle;Max_cycle;Signal;HPM_P1;HPM_P2
2023/12/15 00:00:55;;;;;;;13.77;8.65;;;;;;;;;;4997453;28;20126;-58
2023/12/15 00:03:20;;;;;;;11.77;7.63;;;;;;;;;;4997375;28;20038;-58
2023/12/15 00:05:46;;;;;;;10.80;7.45;;;;;;;;;;4997730;28;20027;-58
2023/12/15 00:08:11;;;;;;;11.75;8.07;;;;;;;;;;4997389;28;20030;-58
2023/12/15 00:10:36;;;;;;;12.25;8.40;;;;;;;;;;4979347;28;20454;-59
2023/12/15 00:13:02;;;;;;;15.02;10.07;;;;;;;;;;4996913;28;20030;-58
2023/12/15 00:15:27;;;;;;;15.88;10.60;;;;;;;;;;4979853;28;20077;-57
2023/12/15 00:17:52;;;;;;;12.45;9.02;;;;;;;;;;4994713;28;20069;-58
2023/12/15 00:20:18;;;;;;;13.07;9.10;;;;;;;;;;4996904;28;20057;-57
2023/12/15 00:22:43;;;;;;;11.95;7.55;;;;;;;;;;4997276;28;20019;-58
2023/12/15 00:25:08;;;;;;;9.05;6.32;;;;;;;;;;4996778;28;20357;-57
2023/12/15 00:27:34;;;;;;;11.20;8.30;;;;;;;;;;4996688;28;20085;-57
2023/12/15 00:29:59;;;;;;;10.82;7.18;;;;;;;;;;4996871;28;20038;-57
2023/12/15 00:32:24;;;;;;;10.85;7.55;;;;;;;;;;4997022;28;20034;-57
2023/12/15 00:34:50;;;;;;;9.93;7.57;;;;;;;;;;4997197;28;20038;-57
2023/12/15 00:37:15;;;;;;;10.43;7.40;;;;;;;;;;4996771;28;20077;-57
2023/12/15 00:39:41;;;;;;;8.52;6.68;;;;;;;;;;4996905;28;20014;-57
2023/12/15 00:42:06;;;;;;;6.43;5.20;;;;;;;;;;4979625;28;20483;-57
2023/12/15 00:44:34;;;;;;;9.52;7.28;;;;;;;;;;4979206;28;20030;-57
2023/12/15 00:47:00;;;;;;;8.95;6.53;;;;;;;;;;4996924;28;20034;-57
2023/12/15 00:49:26;;;;;;;9.90;7.25;;;;;;;;;;4996475;28;20126;-57
2023/12/15 00:51:51;;;;;;;7.32;5.90;;;;;;;;;;4996779;28;20042;-57
2023/12/15 00:54:18;;;;;;;10.88;7.70;;;;;;;;;;4996892;28;20057;-57
2023/12/15 00:56:43;;;;;;;8.02;7.18;;;;;;;;;;4996636;28;20338;-59
2023/12/15 00:59:09;;;;;;;10.82;7.35;;;;;;;;;;4996304;28;20037;-59
2023/12/15 01:01:34;;;;;;;9.15;8.02;;;;;;;;;;4996084;28;20018;-57
2023/12/15 01:03:59;;;;;;;11.93;7.63;;;;;;;;;;4996178;28;20026;-59
2023/12/15 01:06:25;;;;;;;9.10;7.20;;;;;;;;;;4996151;28;20030;-57
2023/12/15 01:08:50;;;;;;;9.82;6.90;;;;;;;;;;4995890;28;20069;-60
2023/12/15 01:11:15;;;;;;;7.32;5.57;;;;;;;;;;4979022;28;20026;-60
2023/12/15 01:13:41;;;;;;;9.05;7.45;;;;;;;;;;4996320;28;20377;-60
2023/12/15 01:16:06;;;;;;;8.43;5.85;;;;;;;;;;4995899;28;20465;-60
2023/12/15 01:18:32;;;;;;;6.95;6.22;;;;;;;;;;4995778;28;20057;-60
2023/12/15 01:20:57;;;;;;;9.50;7.32;;;;;;;;;;4996117;28;20073;-60
2023/12/15 01:23:22;;;;;;;10.98;7.95;;;;;;;;;;4996136;28;20081;-60
2023/12/15 01:25:48;;;;;;;8.80;6.97;;;;;;;;;;4995952;28;20461;-60
2023/12/15 01:28:13;;;;;;;11.85;7.63;;;;;;;;;;4978403;28;20130;-60
2023/12/15 01:30:39;;;;;;;11.02;7.78;;;;;;;;;;5031954;23;20156;-60
2023/12/15 01:33:04;;;;;;;10.65;8.35;;;;;;;;;;5015301;28;20026;-60
2023/12/15 01:35:30;;;;;;;11.38;8.38;;;;;;;;;;5026125;23;20053;-58
2023/12/15 01:37:55;;;;;;;10.07;6.90;;;;;;;;;;5015218;28;20045;-60
2023/12/15 01:40:21;;;;;;;11.02;8.10;;;;;;;;;;5014933;28;20034;-60
2023/12/15 01:42:47;;;;;;;11.55;8.23;;;;;;;;;;5015234;28;20026;-60
2023/12/15 01:45:12;;;;;;;10.10;6.90;;;;;;;;;;5015216;28;20101;-60
2023/12/15 01:47:37;;;;;;;9.68;7.45;;;;;;;;;;5015211;28;20113;-60
2023/12/15 01:50:03;;;;;;;7.55;6.57;;;;;;;;;;4997069;28;20109;-60
2023/12/15 01:52:29;;;;;;;11.80;7.75;;;;;;;;;;5014658;28;20390;-60
2023/12/15 01:54:54;;;;;;;6.68;5.43;;;;;;;;;;5014485;28;20607;-60
2023/12/15 01:57:19;;;;;;;8.65;6.65;;;;;;;;;;4997621;28;20048;-60
2023/12/15 01:59:46;;;;;;;14.90;7.75;;;;;;;;;;5014681;28;20064;-61
2023/12/15 02:02:12;;;;;;;12.40;8.35;;;;;;;;;;5014630;28;20029;-60
2023/12/15 02:04:38;;;;;;;8.27;6.95;;;;;;;;;;5014643;28;20026;-59
2023/12/15 02:07:03;;;;;;;11.30;8.02;;;;;;;;;;5013360;28;20022;-60
2023/12/15 02:09:29;;;;;;;11.88;7.30;;;;;;;;;;5014575;28;20121;-60
2023/12/15 02:11:54;;;;;;;10.95;8.10;;;;;;;;;;5014330;28;20060;-60
2023/12/15 02:14:19;;;;;;;8.00;6.45;;;;;;;;;;5014517;28;20116;-60
2023/12/15 02:16:46;;;;;;;8.68;6.22;;;;;;;;;;5014215;28;20072;-60
2023/12/15 02:19:11;;;;;;;10.45;7.60;;;;;;;;;;4997173;28;20472;-60
2023/12/15 02:21:36;;;;;;;9.93;7.75;;;;;;;;;;5014369;28;20054;-60
2023/12/15 02:24:02;;;;;;;10.20;8.25;;;;;;;;;;5014790;28;20052;-60
2023/12/15 02:26:27;;;;;;;9.55;7.35;;;;;;;;;;4996826;28;20088;-61
2023/12/15 02:28:52;;;;;;;11.35;8.35;;;;;;;;;;5014382;28;20033;-61
2023/12/15 02:31:19;;;;;;;11.55;8.63;;;;;;;;;;5013996;28;20037;-60
2023/12/15 02:33:44;;;;;;;13.60;8.90;;;;;;;;;;5014587;28;20029;-59
2023/12/15 02:36:16;;;;;;;15.95;9.55;;;;;;;;;;5014454;28;20109;-59
2023/12/15 02:38:42;;;;;;;13.55;7.90;;;;;;;;;;5014578;28;20376;-59
2023/12/15 02:41:10;;;;;;;13.23;7.65;;;;;;;;;;5013158;28;20112;-59
2023/12/15 02:43:35;;;;;;;6.85;6.00;;;;;;;;;;5014340;28;20032;-59
2023/12/15 02:46:00;;;;;;;8.25;6.68;;;;;;;;;;5014510;28;20431;-59
2023/12/15 02:48:26;;;;;;;10.73;7.22;;;;;;;;;;5014514;28;20523;-59
2023/12/15 02:50:51;;;;;;;6.35;5.25;;;;;;;;;;5014052;28;20026;-59
2023/12/15 02:53:16;;;;;;;8.85;6.30;;;;;;;;;;5014350;28;20364;-59
2023/12/15 02:55:41;;;;;;;6.03;5.43;;;;;;;;;;4996217;28;20029;-59
2023/12/15 02:58:08;;;;;;;5.40;4.40;;;;;;;;;;5014376;28;20437;-59
2023/12/15 03:00:33;;;;;;;5.90;4.85;;;;;;;;;;5014173;28;20034;-59
2023/12/15 03:02:59;;;;;;;7.85;6.00;;;;;;;;;;4996774;28;20041;-59
2023/12/15 03:05:24;;;;;;;7.05;5.35;;;;;;;;;;5013977;28;20018;-59
2023/12/15 03:07:49;;;;;;;6.32;5.40;;;;;;;;;;5013676;28;20392;-59
2023/12/15 03:10:14;;;;;;;7.45;5.22;;;;;;;;;;5014448;28;20468;-59
2023/12/15 03:12:40;;;;;;;5.60;5.00;;;;;;;;;;5014271;28;20034;-60
2023/12/15 03:15:06;;;;;;;5.95;4.78;;;;;;;;;;5013873;28;20026;-60
2023/12/15 03:17:31;;;;;;;5.80;4.78;;;;;;;;;;5014081;28;20353;-60
2023/12/15 03:19:56;;;;;;;4.65;4.32;;;;;;;;;;5013720;28;20076;-60
2023/12/15 03:22:22;;;;;;;4.65;4.00;;;;;;;;;;5013958;28;20492;-62
2023/12/15 03:24:47;;;;;;;5.70;4.38;;;;;;;;;;5013835;28;20119;-62
2023/12/15 03:27:14;;;;;;;4.88;4.45;;;;;;;;;;5013920;28;20034;-62
2023/12/15 03:29:39;;;;;;;5.32;4.82;;;;;;;;;;5013849;28;20062;-60
2023/12/15 03:32:05;;;;;;;4.50;4.03;;;;;;;;;;5014342;28;20044;-59
2023/12/15 03:34:30;;;;;;;5.22;4.68;;;;;;;;;;5013653;28;20030;-58
2023/12/15 03:36:55;;;;;;;5.03;4.43;;;;;;;;;;5013160;28;20515;-57
2023/12/15 03:39:20;;;;;;;4.95;4.55;;;;;;;;;;4996419;28;20026;-57
2023/12/15 03:41:46;;;;;;;3.75;3.20;;;;;;;;;;4996183;28;20037;-58
2023/12/15 03:44:11;;;;;;;4.60;4.20;;;;;;;;;;5013963;28;20108;-58
2023/12/15 03:46:37;;;;;;;4.90;4.22;;;;;;;;;;5013464;28;20080;-60
2023/12/15 03:49:02;;;;;;;4.85;4.38;;;;;;;;;;5013344;28;20027;-59
2023/12/15 03:51:27;;;;;;;7.75;5.53;;;;;;;;;;5013990;28;20044;-57
2023/12/15 03:53:53;;;;;;;5.63;5.13;;;;;;;;;;5017012;28;20025;-56
2023/12/15 03:56:25;;;;;;;5.68;5.07;;;;;;;;;;5017651;28;20037;-57
2023/12/15 03:58:50;;;;;;;4.65;4.25;;;;;;;;;;5017256;28;20101;-58
2023/12/15 04:01:15;;;;;;;5.28;4.47;;;;;;;;;;5017039;28;20423;-58
2023/12/15 04:03:41;;;;;;;5.45;4.93;;;;;;;;;;5017100;28;20022;-58
2023/12/15 04:06:08;;;;;;;4.85;4.45;;;;;;;;;;5017246;28;20468;-58
2023/12/15 04:08:34;;;;;;;6.25;5.65;;;;;;;;;;5016988;28;20034;-58
2023/12/15 04:10:59;;;;;;;5.10;4.70;;;;;;;;;;5017170;28;20033;-59
2023/12/15 04:13:24;;;;;;;5.53;5.03;;;;;;;;;;5017027;28;20038;-59
2023/12/15 04:15:50;;;;;;;6.22;5.15;;;;;;;;;;5016714;28;20163;-58
2023/12/15 04:18:16;;;;;;;5.95;5.45;;;;;;;;;;5016543;28;20034;-58
2023/12/15 04:20:41;;;;;;;5.40;4.90;;;;;;;;;;5017025;28;20080;-58
2023/12/15 04:23:07;;;;;;;6.07;5.57;;;;;;;;;;5016635;28;20109;-58
2023/12/15 04:25:32;;;;;;;6.55;5.50;;;;;;;;;;4999330;28;20026;-58
2023/12/15 04:27:58;;;;;;;6.03;5.50;;;;;;;;;;5016934;28;20034;-57
2023/12/15 04:30:23;;;;;;;5.97;5.47;;;;;;;;;;5016157;28;20022;-57
2023/12/15 04:32:48;;;;;;;5.95;5.35;;;;;;;;;;5015964;28;20387;-57
2023/12/15 04:35:14;;;;;;;5.55;5.15;;;;;;;;;;5015652;28;20041;-57
2023/12/15 04:37:41;;;;;;;6.53;5.90;;;;;;;;;;4998196;28;20037;-57
2023/12/15 04:40:07;;;;;;;6.03;5.45;;;;;;;;;;5015330;28;20109;-57
2023/12/15 04:42:32;;;;;;;6.28;5.68;;;;;;;;;;5015140;28;20110;-58
2023/12/15 04:44:59;;;;;;;6.00;5.47;;;;;;;;;;4997548;28;20045;-58
2023/12/15 04:47:24;;;;;;;6.50;5.90;;;;;;;;;;5015350;28;20033;-58
2023/12/15 04:49:49;;;;;;;6.43;5.78;;;;;;;;;;5015570;28;20030;-58
2023/12/15 04:52:15;;;;;;;6.20;5.57;;;;;;;;;;5015392;28;20030;-58
2023/12/15 04:54:40;;;;;;;7.15;6.45;;;;;;;;;;5015046;28;20026;-58
2023/12/15 04:57:05;;;;;;;6.97;6.30;;;;;;;;;;5015069;28;20116;-58
2023/12/15 04:59:31;;;;;;;7.70;6.90;;;;;;;;;;5014200;28;20053;-58
2023/12/15 05:01:56;;;;;;;7.15;6.43;;;;;;;;;;5014118;28;20018;-58
2023/12/15 05:04:22;;;;;;;6.88;6.18;;;;;;;;;;5013806;28;20116;-59
2023/12/15 05:06:47;;;;;;;7.75;6.53;;;;;;;;;;5014536;28;20061;-59
2023/12/15 05:09:12;;;;;;;8.30;6.32;;;;;;;;;;4996779;28;20057;-59
2023/12/15 05:11:38;;;;;;;7.75;6.78;;;;;;;;;;5014354;28;20033;-58
2023/12/15 05:14:04;;;;;;;7.57;6.85;;;;;;;;;;5014736;28;20354;-58
2023/12/15 05:16:29;;;;;;;8.18;7.13;;;;;;;;;;5014928;28;20065;-58
2023/12/15 05:18:55;;;;;;;8.98;6.97;;;;;;;;;;5014872;28;20025;-60
2023/12/15 05:21:20;;;;;;;9.52;7.93;;;;;;;;;;5014646;28;20085;-57
2023/12/15 05:23:45;;;;;;;9.23;7.68;;;;;;;;;;5014897;28;20034;-58
2023/12/15 05:26:14;;;;;;;10.38;8.15;;;;;;;;;;5014999;28;20105;-58
2023/12/15 05:28:39;;;;;;;9.38;7.47;;;;;;;;;;5014852;28;20034;-58
2023/12/15 05:31:06;;;;;;;10.82;8.25;;;;;;;;;;5014824;28;20014;-58
2023/12/15 05:33:31;;;;;;;10.00;8.60;;;;;;;;;;5014206;28;20034;-59
2023/12/15 05:35:57;;;;;;;10.15;8.55;;;;;;;;;;5014487;28;20041;-58
2023/12/15 05:38:22;;;;;;;11.32;8.40;;;;;;;;;;5014698;28;20042;-58
2023/12/15 05:40:48;;;;;;;9.73;8.70;;;;;;;;;;5014115;28;20033;-57
2023/12/15 05:43:13;;;;;;;9.73;8.13;;;;;;;;;;4997157;28;20032;-58
2023/12/15 05:45:40;;;;;;;10.45;8.27;;;;;;;;;;5014602;28;20034;-57
2023/12/15 05:48:05;;;;;;;9.27;7.97;;;;;;;;;;5014228;28;20088;-58
2023/12/15 05:50:30;;;;;;;11.15;8.65;;;;;;;;;;4995950;28;20476;-58
2023/12/15 05:52:56;;;;;;;9.43;8.35;;;;;;;;;;5014623;28;20053;-58
2023/12/15 05:55:21;;;;;;;12.10;9.20;;;;;;;;;;5014536;28;20034;-58
2023/12/15 05:57:46;;;;;;;8.43;7.25;;;;;;;;;;4996868;28;20033;-58
2023/12/15 06:00:12;;;;;;;9.25;7.78;;;;;;;;;;5014721;28;20010;-58
2023/12/15 06:02:37;;;;;;;13.60;8.50;;;;;;;;;;5014403;28;20062;-58
2023/12/15 06:05:03;;;;;;;8.82;7.93;;;;;;;;;;4997556;28;20080;-58
2023/12/15 06:07:31;;;;;;;9.98;8.50;;;;;;;;;;5014680;28;20036;-58
2023/12/15 06:09:56;;;;;;;9.35;8.20;;;;;;;;;;5014539;28;20476;-59
2023/12/15 06:12:22;;;;;;;10.90;8.60;;;;;;;;;;5014491;28;20041;-59
2023/12/15 06:14:47;;;;;;;13.60;9.32;;;;;;;;;;5014579;28;20053;-59
2023/12/15 06:17:12;;;;;;;9.63;8.43;;;;;;;;;;5014496;28;20025;-58
2023/12/15 06:19:38;;;;;;;12.65;8.90;;;;;;;;;;5014550;28;20032;-59
2023/12/15 06:22:04;;;;;;;10.85;8.35;;;;;;;;;;5014693;28;20036;-59
2023/12/15 06:24:29;;;;;;;11.00;8.70;;;;;;;;;;5013740;28;20022;-58
2023/12/15 06:26:55;;;;;;;10.23;8.80;;;;;;;;;;5014900;28;20034;-58
2023/12/15 06:29:20;;;;;;;12.18;8.20;;;;;;;;;;5014396;28;20133;-59
2023/12/15 06:31:46;;;;;;;11.27;8.38;;;;;;;;;;5013884;28;20071;-58
2023/12/15 06:34:11;;;;;;;10.73;8.10;;;;;;;;;;5014560;28;20071;-59
2023/12/15 06:36:36;;;;;;;10.02;8.27;;;;;;;;;;5014535;28;20065;-59
2023/12/15 06:39:02;;;;;;;10.60;8.32;;;;;;;;;;5014008;28;20408;-59
2023/12/15 06:41:27;;;;;;;9.90;8.63;;;;;;;;;;5014337;28;20029;-59
2023/12/15 06:43:56;;;;;;;11.25;8.95;;;;;;;;;;5025755;23;20060;-58
2023/12/15 06:46:40;;;;;;;13.90;9.57;;;;;;;;;;4994067;28;20053;-59
2023/12/15 06:49:06;;;;;;;16.27;11.00;;;;;;;;;;4994178;28;20058;-59
2023/12/15 06:51:31;;;;;;;13.68;9.85;;;;;;;;;;4997548;28;20061;-59
2023/12/15 06:53:56;;;;;;;16.15;9.73;;;;;;;;;;5013287;28;20400;-59
2023/12/15 06:56:22;;;;;;;14.52;10.95;;;;;;;;;;5012760;28;20383;-59
2023/12/15 06:58:47;;;;;;;13.88;9.43;;;;;;;;;;5012917;28;20026;-59
2023/12/15 07:01:13;;;;;;;14.02;8.82;;;;;;;;;;5013120;28;20029;-59
2023/12/15 07:03:39;;;;;;;14.65;10.15;;;;;;;;;;5013034;28;20018;-58
2023/12/15 07:06:05;;;;;;;14.23;9.95;;;;;;;;;;5012487;28;20113;-58
2023/12/15 07:08:30;;;;;;;16.55;10.13;;;;;;;;;;5012772;28;20029;-59
2023/12/15 07:10:56;;;;;;;11.85;9.02;;;;;;;;;;5013958;28;20034;-58
2023/12/15 07:13:21;;;;;;;11.55;8.75;;;;;;;;;;5013937;28;20077;-59
2023/12/15 07:15:46;;;;;;;13.27;9.10;;;;;;;;;;4979996;28;20038;-58
2023/12/15 07:18:12;;;;;;;13.65;9.23;;;;;;;;;;5013753;28;20053;-58
2023/12/15 07:20:37;;;;;;;9.90;8.20;;;;;;;;;;5013727;28;20030;-58
2023/12/15 07:23:02;;;;;;;11.00;8.10;;;;;;;;;;5014176;28;20057;-58
2023/12/15 07:25:28;;;;;;;8.73;5.95;;;;;;;;;;5013567;28;20380;-58
2023/12/15 07:27:53;;;;;;;9.68;7.28;;;;;;;;;;5016904;28;20021;-58
2023/12/15 07:30:19;;;;;;;10.13;7.70;;;;;;;;;;5017610;28;20457;-59
2023/12/15 07:32:45;;;;;;;12.30;8.90;;;;;;;;;;5017413;28;20058;-58
2023/12/15 07:35:10;;;;;;;9.90;7.03;;;;;;;;;;5017580;28;20357;-58
2023/12/15 07:37:35;;;;;;;12.05;7.40;;;;;;;;;;5017158;28;20483;-58
2023/12/15 07:40:03;;;;;;;14.00;9.73;;;;;;;;;;5017082;28;20021;-58
2023/12/15 07:42:29;;;;;;;16.80;9.48;;;;;;;;;;5017546;28;20380;-58
2023/12/15 07:44:54;;;;;;;8.80;7.80;;;;;;;;;;5017553;28;20037;-59
2023/12/15 07:47:19;;;;;;;13.07;8.45;;;;;;;;;;5000249;28;20042;-59
2023/12/15 07:49:45;;;;;;;11.68;7.82;;;;;;;;;;5016949;28;20037;-59
2023/12/15 07:52:10;;;;;;;9.70;7.25;;;;;;;;;;5017388;28;20029;-58
2023/12/15 07:54:36;;;;;;;12.73;8.57;;;;;;;;;;5017427;28;20019;-59
2023/12/15 07:57:01;;;;;;;10.25;7.65;;;;;;;;;;4999477;28;20042;-58
2023/12/15 07:59:27;;;;;;;11.48;7.85;;;;;;;;;;5017096;28;20381;-58
2023/12/15 08:01:54;;;;;;;8.88;7.15;;;;;;;;;;5017108;28;20029;-59
2023/12/15 08:04:20;;;;;;;11.90;8.07;;;;;;;;;;5016359;28;20487;-59
2023/12/15 08:06:45;;;;;;;13.57;9.57;;;;;;;;;;4999129;28;20030;-59
2023/12/15 08:09:11;;;;;;;13.98;10.25;;;;;;;;;;5015896;28;20037;-59
2023/12/15 08:11:37;;;;;;;11.55;9.75;;;;;;;;;;5016060;28;20038;-59
2023/12/15 08:14:03;;;;;;;15.93;11.35;;;;;;;;;;5016265;28;20030;-59
2023/12/15 08:16:31;;;;;;;14.15;11.02;;;;;;;;;;5015992;28;20037;-59
2023/12/15 08:18:57;;;;;;;13.77;10.57;;;;;;;;;;5015670;28;20033;-59
2023/12/15 08:21:23;;;;;;;14.45;11.18;;;;;;;;;;4982421;28;20112;-60
2023/12/15 08:23:48;;;;;;;15.23;11.20;;;;;;;;;;5016208;28;20138;-59
2023/12/15 08:26:23;;;;;;;14.52;11.48;;;;;;;;;;5015686;28;20424;-59
2023/12/15 08:28:48;;;;;;;12.45;10.77;;;;;;;;;;5015645;28;20084;-59
2023/12/15 08:31:14;;;;;;;14.88;10.90;;;;;;;;;;5015600;28;20033;-59
2023/12/15 08:33:40;;;;;;;14.95;11.30;;;;;;;;;;5015340;28;20014;-59
2023/12/15 08:36:06;;;;;;;15.18;10.68;;;;;;;;;;5015493;28;20514;-59
2023/12/15 08:38:32;;;;;;;14.63;10.88;;;;;;;;;;5014642;28;20030;-59
2023/12/15 08:40:58;;;;;;;12.73;10.30;;;;;;;;;;5016107;28;20479;-59
2023/12/15 08:43:24;;;;;;;14.00;10.52;;;;;;;;;;5015845;28;20025;-59
2023/12/15 08:45:49;;;;;;;14.02;10.65;;;;;;;;;;5015476;28;20030;-59
2023/12/15 08:48:15;;;;;;;15.32;10.88;;;;;;;;;;5015492;28;20022;-59
2023/12/15 08:50:40;;;;;;;14.73;10.82;;;;;;;;;;4997646;28;20042;-60
2023/12/15 08:53:05;;;;;;;14.25;10.75;;;;;;;;;;4998147;28;20057;-59
2023/12/15 08:55:31;;;;;;;18.10;12.15;;;;;;;;;;4998016;28;20026;-59
2023/12/15 08:57:56;;;;;;;16.88;13.07;;;;;;;;;;5015491;28;20156;-59
2023/12/15 09:00:21;;;;;;;15.07;11.82;;;;;;;;;;5015500;28;20032;-59
2023/12/15 09:02:47;;;;;;;15.45;11.07;;;;;;;;;;4997926;28;20065;-60
2023/12/15 09:05:13;;;;;;;15.23;11.25;;;;;;;;;;5014754;28;20018;-59
2023/12/15 09:07:39;;;;;;;16.65;12.00;;;;;;;;;;5015337;28;20033;-59
2023/12/15 09:10:04;;;;;;;18.67;11.63;;;;;;;;;;4998010;28;20022;-60
2023/12/15 09:12:30;;;;;;;23.90;13.05;;;;;;;;;;4997759;28;20033;-59
2023/12/15 09:14:56;;;;;;;23.13;12.98;;;;;;;;;;5014978;28;20018;-58
2023/12/15 09:17:21;;;;;;;23.88;12.63;;;;;;;;;;5015105;28;20038;-59
2023/12/15 09:19:47;;;;;;;26.20;12.68;;;;;;;;;;5014876;28;20040;-59
2023/12/15 09:22:12;;;;;;;30.73;14.40;;;;;;;;;;5014968;28;20014;-59
2023/12/15 09:24:37;;;;;;;37.08;15.25;;;;;;;;;;5014705;28;20049;-59
2023/12/15 09:27:03;;;;;;;30.40;15.07;;;;;;;;;;5014898;28;20510;-59
2023/12/15 09:29:30;;;;;;;25.20;13.27;;;;;;;;;;5014807;28;20030;-58
2023/12/15 09:31:55;;;;;;;21.25;12.68;;;;;;;;;;4980538;28;20025;-59
2023/12/15 09:34:24;;;;;;;16.48;11.88;;;;;;;;;;5014745;28;20373;-59
2023/12/15 09:36:49;;;;;;;16.33;10.80;;;;;;;;;;5014659;28;20048;-58
2023/12/15 09:39:15;;;;;;;15.90;10.57;;;;;;;;;;4996684;28;20457;-59
2023/12/15 09:41:40;;;;;;;15.82;10.77;;;;;;;;;;5014726;28;20033;-59
2023/12/15 09:44:05;;;;;;;17.05;9.90;;;;;;;;;;4993451;28;20042;-59
2023/12/15 09:46:31;;;;;;;15.57;10.10;;;;;;;;;;4994771;28;20019;-59
2023/12/15 09:48:57;;;;;;;11.35;9.15;;;;;;;;;;4994767;28;20034;-59
2023/12/15 09:51:23;;;;;;;18.00;10.95;;;;;;;;;;4993754;28;20109;-59
2023/12/15 09:53:48;;;;;;;15.07;9.05;;;;;;;;;;4994262;28;20105;-59
2023/12/15 09:56:14;;;;;;;14.55;10.05;;;;;;;;;;4994365;28;20475;-58
2023/12/15 09:58:40;;;;;;;13.70;10.10;;;;;;;;;;4993983;28;20042;-59
2023/12/15 10:01:05;;;;;;;13.68;9.57;;;;;;;;;;4994688;28;20030;-59
2023/12/15 10:03:31;;;;;;;11.68;8.40;;;;;;;;;;4994955;28;20026;-59
2023/12/15 10:05:56;;;;;;;14.18;10.55;;;;;;;;;;4994673;28;20085;-59
2023/12/15 10:08:24;;;;;;;13.45;11.00;;;;;;;;;;4994776;28;20038;-59
2023/12/15 10:10:52;;;;;;;14.50;9.10;;;;;;;;;;4993198;28;20022;-59
2023/12/15 10:13:17;;;;;;;12.00;8.40;;;;;;;;;;4994484;28;20037;-59
2023/12/15 10:15:43;;;;;;;11.75;8.32;;;;;;;;;;4994655;28;20022;-59
2023/12/15 10:18:08;;;;;;;12.75;9.27;;;;;;;;;;4994516;28;20488;-59
2023/12/15 10:20:34;;;;;;;10.70;8.60;;;;;;;;;;4994482;28;20042;-59
2023/12/15 10:23:03;;;;;;;12.63;9.45;;;;;;;;;;4994400;28;20022;-59
2023/12/15 10:25:29;;;;;;;13.02;9.23;;;;;;;;;;4992439;28;20043;-58
2023/12/15 10:27:54;;;;;;;15.45;10.63;;;;;;;;;;4993394;28;20033;-59
2023/12/15 10:30:19;;;;;;;11.13;7.53;;;;;;;;;;4994364;28;20117;-59
2023/12/15 10:32:46;;;;;;;8.23;6.38;;;;;;;;;;4994364;28;20033;-59
2023/12/15 10:35:12;;;;;;;10.48;6.72;;;;;;;;;;4992884;28;20037;-61
2023/12/15 10:37:38;;;;;;;13.05;7.40;;;;;;;;;;4994243;28;20465;-59
2023/12/15 10:40:04;;;;;;;11.60;7.28;;;;;;;;;;4994361;28;20033;-59
2023/12/15 10:42:30;;;;;;;10.32;6.93;;;;;;;;;;4994193;28;20085;-59
2023/12/15 10:44:56;;;;;;;9.10;7.00;;;;;;;;;;4993055;28;20420;-59
2023/12/15 10:47:23;;;;;;;9.82;6.35;;;;;;;;;;4993112;28;20047;-58
2023/12/15 10:49:49;;;;;;;10.27;6.18;;;;;;;;;;4994247;28;20065;-58
2023/12/15 10:52:15;;;;;;;8.45;6.28;;;;;;;;;;4994181;28;20085;-59
2023/12/15 10:54:42;;;;;;;8.88;6.68;;;;;;;;;;4994137;28;20398;-59
2023/12/15 10:57:10;;;;;;;9.85;6.40;;;;;;;;;;4994021;28;20122;-59
2023/12/15 10:59:37;;;;;;;10.55;7.00;;;;;;;;;;4994285;28;20511;-58
2023/12/15 11:02:08;;;;;;;11.70;7.88;;;;;;;;;;4994585;28;20096;-58
2023/12/15 11:04:34;;;;;;;16.05;8.77;;;;;;;;;;4997919;28;20485;-59
2023/12/15 11:06:59;;;;;;;16.08;9.38;;;;;;;;;;4996850;28;20125;-59
2023/12/15 11:09:32;;;;;;;10.75;7.55;;;;;;;;;;4998050;28;20080;-58
2023/12/15 11:12:24;;;;;;;11.27;8.45;;;;;;;;;;4997479;28;20038;-58
2023/12/15 11:14:50;;;;;;;10.10;6.60;;;;;;;;;;4994906;28;20133;-59
2023/12/15 11:17:16;;;;;;;11.38;7.82;;;;;;;;;;4996725;28;20098;-59
2023/12/15 11:19:41;;;;;;;13.02;8.60;;;;;;;;;;4996832;28;20031;-59
2023/12/15 11:22:09;;;;;;;13.50;8.30;;;;;;;;;;4996997;28;20524;-58
2023/12/15 11:24:34;;;;;;;10.18;7.50;;;;;;;;;;4996659;28;20350;-59
2023/12/15 11:26:59;;;;;;;10.60;6.80;;;;;;;;;;4996619;28;20029;-58
2023/12/15 11:29:33;;;;;;;7.75;6.38;;;;;;;;;;4996392;28;20033;-58
2023/12/15 11:32:18;;;;;;;10.00;6.28;;;;;;;;;;4980400;28;20030;-58
2023/12/15 11:34:44;;;;;;;9.80;6.88;;;;;;;;;;4997378;28;20029;-58
2023/12/15 11:37:11;;;;;;;7.05;5.50;;;;;;;;;;4997656;28;20034;-59
2023/12/15 11:39:39;;;;;;;6.72;5.72;;;;;;;;;;4997525;28;20121;-59
2023/12/15 11:42:04;;;;;;;7.95;5.47;;;;;;;;;;4997211;28;20045;-58
2023/12/15 11:44:30;;;;;;;6.75;5.45;;;;;;;;;;4995995;28;20035;-59
2023/12/15 11:46:56;;;;;;;7.47;5.82;;;;;;;;;;4996810;28;20031;-58
2023/12/15 11:49:24;;;;;;;8.40;6.32;;;;;;;;;;4997336;28;20692;-59
2023/12/15 11:51:53;;;;;;;7.00;5.72;;;;;;;;;;4997368;28;20113;-59
2023/12/15 11:54:19;;;;;;;8.45;6.32;;;;;;;;;;4997132;28;20065;-59
2023/12/15 11:56:44;;;;;;;8.00;6.70;;;;;;;;;;4996484;28;20054;-59
2023/12/15 11:59:09;;;;;;;8.60;6.70;;;;;;;;;;4996425;28;20034;-63
2023/12/15 12:01:37;;;;;;;11.65;7.03;;;;;;;;;;4996246;28;20110;-58
2023/12/15 12:04:02;;;;;;;8.18;5.97;;;;;;;;;;4997112;28;20027;-63
2023/12/15 12:06:29;;;;;;;9.68;6.28;;;;;;;;;;4997163;28;20089;-63
2023/12/15 12:08:55;;;;;;;9.63;6.53;;;;;;;;;;4996243;28;20044;-63
2023/12/15 12:11:21;;;;;;;8.55;7.18;;;;;;;;;;4979927;28;20034;-63
2023/12/15 12:13:48;;;;;;;10.07;8.07;;;;;;;;;;4995661;28;20018;-63
2023/12/15 12:16:15;;;;;;;12.88;9.07;;;;;;;;;;4996784;28;20034;-63
2023/12/15 12:18:40;;;;;;;11.13;7.35;;;;;;;;;;4996687;28;20353;-63
2023/12/15 12:21:07;;;;;;;13.98;8.50;;;;;;;;;;4995703;28;20034;-63
2023/12/15 12:23:32;;;;;;;15.57;9.00;;;;;;;;;;4995544;28;20470;-63
2023/12/15 12:25:58;;;;;;;11.82;8.00;;;;;;;;;;4995996;28;20054;-63
2023/12/15 12:28:38;;;;;;;13.55;8.63;;;;;;;;;;4996721;28;20018;-63
2023/12/15 12:31:03;;;;;;;13.25;8.52;;;;;;;;;;4996937;28;20378;-63
2023/12/15 12:33:30;;;;;;;9.73;6.57;;;;;;;;;;4995323;28;20125;-63
2023/12/15 12:35:56;;;;;;;10.68;6.05;;;;;;;;;;4996509;28;20065;-63
2023/12/15 12:38:21;;;;;;;10.55;6.93;;;;;;;;;;4995873;28;20064;-63
2023/12/15 12:40:47;;;;;;;10.25;7.22;;;;;;;;;;4995803;28;20045;-63
2023/12/15 12:43:12;;;;;;;11.70;7.97;;;;;;;;;;4995211;28;20031;-63
2023/12/15 12:45:37;;;;;;;10.35;6.88;;;;;;;;;;4998443;28;20058;-63
2023/12/15 12:48:04;;;;;;;8.27;5.85;;;;;;;;;;5015796;28;20100;-63
2023/12/15 12:50:29;;;;;;;8.10;6.28;;;;;;;;;;5015781;28;20049;-63
2023/12/15 12:52:55;;;;;;;10.65;6.68;;;;;;;;;;5015676;28;20038;-63
2023/12/15 12:55:21;;;;;;;8.70;5.20;;;;;;;;;;4998118;28;20084;-63
2023/12/15 12:57:47;;;;;;;9.15;6.13;;;;;;;;;;5015597;28;20072;-63
2023/12/15 13:00:13;;;;;;;8.63;6.70;;;;;;;;;;5015520;28;20026;-63
2023/12/15 13:02:39;;;;;;;7.78;5.78;;;;;;;;;;4997696;28;20506;-63
2023/12/15 13:05:05;;;;;;;8.32;6.18;;;;;;;;;;5015346;28;20113;-63
2023/12/15 13:07:31;;;;;;;8.70;7.18;;;;;;;;;;5015798;28;20077;-63
2023/12/15 13:09:57;;;;;;;9.68;6.43;;;;;;;;;;5015413;28;20042;-63
2023/12/15 13:12:22;;;;;;;10.57;7.25;;;;;;;;;;5015673;28;20021;-63
2023/12/15 13:14:47;;;;;;;13.00;8.65;;;;;;;;;;4997638;28;20033;-63
2023/12/15 13:17:14;;;;;;;15.30;9.50;;;;;;;;;;5015615;28;20026;-63
2023/12/15 13:19:39;;;;;;;7.38;5.72;;;;;;;;;;5014719;28;20030;-64
2023/12/15 13:22:06;;;;;;;12.95;7.75;;;;;;;;;;5015199;28;20097;-63
2023/12/15 13:24:32;;;;;;;13.13;7.90;;;;;;;;;;5014366;28;20117;-63
2023/12/15 13:26:57;;;;;;;11.43;7.40;;;;;;;;;;5014871;28;20125;-63
2023/12/15 13:29:23;;;;;;;14.32;8.35;;;;;;;;;;4997750;28;20041;-64
2023/12/15 13:31:48;;;;;;;9.32;6.90;;;;;;;;;;5014997;28;20419;-66
2023/12/15 13:34:14;;;;;;;14.30;8.63;;;;;;;;;;5015007;28;20088;-66
2023/12/15 13:36:40;;;;;;;13.32;8.65;;;;;;;;;;4997191;28;20017;-66
2023/12/15 13:39:08;;;;;;;11.25;8.20;;;;;;;;;;5014836;28;20483;-65
2023/12/15 13:41:34;;;;;;;15.65;9.10;;;;;;;;;;5014837;28;20026;-65
2023/12/15 13:44:00;;;;;;;11.07;8.35;;;;;;;;;;5014646;28;20400;-65
2023/12/15 13:46:26;;;;;;;12.88;8.70;;;;;;;;;;5014406;28;20037;-65
2023/12/15 13:48:51;;;;;;;13.43;9.80;;;;;;;;;;5014915;28;20030;-62
2023/12/15 13:51:17;;;;;;;14.23;10.07;;;;;;;;;;5014698;28;20037;-67
2023/12/15 13:53:42;;;;;;;13.38;9.15;;;;;;;;;;4997093;28;20038;-67
2023/12/15 13:56:08;;;;;;;13.73;9.43;;;;;;;;;;4997340;28;20057;-67
2023/12/15 13:58:34;;;;;;;13.55;9.23;;;;;;;;;;5014511;28;20022;-66
2023/12/15 14:00:59;;;;;;;12.30;8.48;;;;;;;;;;5014575;28;20560;-66
2023/12/15 14:03:24;;;;;;;13.98;9.48;;;;;;;;;;4995051;28;20026;-66
2023/12/15 14:05:50;;;;;;;11.25;8.82;;;;;;;;;;5012349;28;20044;-66
2023/12/15 14:08:15;;;;;;;15.13;9.95;;;;;;;;;;5012799;28;20021;-66
2023/12/15 14:10:40;;;;;;;11.88;9.07;;;;;;;;;;4995330;28;20044;-66
2023/12/15 14:13:06;;;;;;;10.45;8.95;;;;;;;;;;4978941;28;20044;-66
2023/12/15 14:15:31;;;;;;;11.30;9.40;;;;;;;;;;5013153;28;20025;-67
2023/12/15 14:17:57;;;;;;;11.40;9.30;;;;;;;;;;5012894;28;20045;-67
2023/12/15 14:20:22;;;;;;;13.73;9.30;;;;;;;;;;5013316;28;20030;-67
2023/12/15 14:22:48;;;;;;;11.75;8.60;;;;;;;;;;5013387;28;20060;-67
2023/12/15 14:25:13;;;;;;;11.82;9.02;;;;;;;;;;4979989;28;20053;-67